Alexander von Humboldt II — DDKK2 — position and weather

sailwx.info

Track history (hours):
 
Tides and Currents Weather Stations Pressure Air Temp Water Temp Dewpoint Dewpoint Depression Visibility Wind Speed Wind Dir Waves Ship Positions

Alexander von Humboldt II

Ship's website: https://www.alex-2.de/en/

Last reported at 2017-Nov-16 09:41 UTC. Time now 2017-Nov-18 14:12 UTC.
Position N 38°16' W 000°14'.

Length 65 m; draft 4.6 m.

Type: Sailing vessel. MMSI: 218768000.

Date/timePositionNaut miles runAvg speedWind from/ knotsBaromVisibWave heightAir tempDewpointWater temp
2017-Nov-16 09:41N 38°16' W 000°14'0 2.1
2017-Nov-16 09:30N 38°16' W 000°15'21 8.6
2017-Nov-16 07:05N 37°57' W 000°27'1110.2
2017-Nov-16 06:00N 38°06' W 000°18'11 5.1 290 / 91019.8 5.4 16.5 9.419.0
2017-Nov-16 03:45N 37°57' W 000°27'1 4.5
2017-Nov-16 03:30N 37°56' W 000°28'2 4.9
2017-Nov-16 03:00N 37°54' W 000°29'3 4.9
2017-Nov-16 02:26N 37°51' W 000°30'3 6.1
2017-Nov-16 02:00N 37°49' W 000°31'3 6.1
2017-Nov-16 01:30N 37°46' W 000°33'3 6.1
2017-Nov-16 01:00N 37°43' W 000°34'3 6.1
2017-Nov-16 00:30N 37°40' W 000°35'3 5.8
2017-Nov-16 00:00N 37°38' W 000°37'3 5.9
2017-Nov-15 23:30N 37°35' W 000°39'3 6.0
2017-Nov-15 23:00N 37°33' W 000°41'3 5.7
2017-Nov-15 22:30N 37°30' W 000°43'5 5.6
2017-Nov-15 21:35N 37°26' W 000°47'0 5.4
2017-Nov-15 21:30N 37°26' W 000°47'3 5.3
2017-Nov-15 21:00N 37°24' W 000°49'3 5.0
2017-Nov-15 20:30N 37°21' W 000°50'3 5.2
2017-Nov-15 19:54N 37°19' W 000°52'3 5.0
2017-Nov-15 19:15N 37°16' W 000°55'4 2.2
2017-Nov-15 17:35N 37°14' W 000°58'0 1.5
2017-Nov-15 17:30N 37°14' W 000°59'1 1.5
2017-Nov-15 16:57N 37°13' W 000°59'9 1.8
2017-Nov-15 12:00N 37°06' W 001°06'5 0.4 150 / 51020.810.8 21.0 8.320.0
2017-Nov-15 00:00N 37°06' W 001°00'6 3.9 100 / 51020.810.8 18.5 8.719.0
2017-Nov-14 22:22N 37°12' W 000°59'8 2.1
2017-Nov-14 18:27N 37°20' W 000°55'3 2.7
2017-Nov-14 17:24N 37°23' W 000°55'2 2.8
2017-Nov-14 16:52N 37°24' W 000°55'1 2.8
2017-Nov-14 16:29N 37°25' W 000°55'1 2.6
2017-Nov-14 16:00N 37°27' W 000°55'1 2.5
2017-Nov-14 15:30N 37°28' W 000°54'1 2.1
2017-Nov-14 15:00N 37°29' W 000°54'1 1.7
2017-Nov-14 14:30N 37°30' W 000°55'1 2.5
2017-Nov-14 14:00N 37°31' W 000°56'5 0.1
2017-Nov-12 20:53N 37°35' W 000°59'2 4.2
2017-Nov-12 20:30N 37°34' W 000°60'2 3.1
2017-Nov-12 20:01N 37°32' W 001°01'9 5.3
2017-Nov-12 18:14N 37°24' W 001°07'1 2.3
2017-Nov-12 17:54N 37°24' W 001°06'1 2.2
2017-Nov-12 17:30N 37°24' W 001°05'1 1.9
2017-Nov-12 17:00N 37°24' W 001°04'80 4.7
2017-Nov-12 00:00N 36°30' W 002°18'57 4.7 280 / 71023.510.8 19.013.318.5
2017-Nov-11 12:00N 36°00' W 003°18'78 3.2 260 / 41025.210.8 19.510.018.5
2017-Nov-10 12:00N 36°00' W 004°54'16 6.4 050 / 111026.010.8 17.5 4.518.5
2017-Nov-10 09:33N 35°60' W 005°13'0 7.3
2017-Nov-10 09:31N 35°60' W 005°14'3 7.0
2017-Nov-10 09:01N 35°59' W 005°18'3 6.9
2017-Nov-10 08:30N 35°58' W 005°22'3 6.3
2017-Nov-10 08:01N 35°58' W 005°26'3 6.3
2017-Nov-10 07:30N 35°57' W 005°30'6 5.6
2017-Nov-10 06:25N 35°55' W 005°37'28 4.4
2017-Nov-10 00:00N 35°54' W 006°12'   040 / 111025.010.8 17.411.220.0
Track history (hours):
 
Tides and Currents Weather Stations Pressure Air Temp Water Temp Dewpoint Dewpoint Depression Visibility Wind Speed Wind Dir Waves Ship Positions

Alexander von Humboldt II

Ship's website: https://www.alex-2.de/en/

Last reported at 2017-Nov-16 09:41 UTC. Time now 2017-Nov-18 14:12 UTC.
Position N 38°16' W 000°14'.

Length 65 m; draft 4.6 m.

Type: Sailing vessel. MMSI: 218768000.

Date/timePositionNaut miles runAvg speedWind from/ knotsBaromVisibWave heightAir tempDewpointWater temp
2017-Nov-16 09:41N 38°16' W 000°14'0 2.1
2017-Nov-16 09:30N 38°16' W 000°15'21 8.6
2017-Nov-16 07:05N 37°57' W 000°27'1110.2
2017-Nov-16 06:00N 38°06' W 000°18'11 5.1 290 / 91019.8 5.4 16.5 9.419.0
2017-Nov-16 03:45N 37°57' W 000°27'1 4.5
2017-Nov-16 03:30N 37°56' W 000°28'2 4.9
2017-Nov-16 03:00N 37°54' W 000°29'3 4.9
2017-Nov-16 02:26N 37°51' W 000°30'3 6.1
2017-Nov-16 02:00N 37°49' W 000°31'3 6.1
2017-Nov-16 01:30N 37°46' W 000°33'3 6.1
2017-Nov-16 01:00N 37°43' W 000°34'3 6.1
2017-Nov-16 00:30N 37°40' W 000°35'3 5.8
2017-Nov-16 00:00N 37°38' W 000°37'3 5.9
2017-Nov-15 23:30N 37°35' W 000°39'3 6.0
2017-Nov-15 23:00N 37°33' W 000°41'3 5.7
2017-Nov-15 22:30N 37°30' W 000°43'5 5.6
2017-Nov-15 21:35N 37°26' W 000°47'0 5.4
2017-Nov-15 21:30N 37°26' W 000°47'3 5.3
2017-Nov-15 21:00N 37°24' W 000°49'3 5.0
2017-Nov-15 20:30N 37°21' W 000°50'3 5.2
2017-Nov-15 19:54N 37°19' W 000°52'3 5.0
2017-Nov-15 19:15N 37°16' W 000°55'4 2.2
2017-Nov-15 17:35N 37°14' W 000°58'0 1.5
2017-Nov-15 17:30N 37°14' W 000°59'1 1.5
2017-Nov-15 16:57N 37°13' W 000°59'9 1.8
2017-Nov-15 12:00N 37°06' W 001°06'5 0.4 150 / 51020.810.8 21.0 8.320.0
2017-Nov-15 00:00N 37°06' W 001°00'6 3.9 100 / 51020.810.8 18.5 8.719.0
2017-Nov-14 22:22N 37°12' W 000°59'8 2.1
2017-Nov-14 18:27N 37°20' W 000°55'3 2.7
2017-Nov-14 17:24N 37°23' W 000°55'2 2.8
2017-Nov-14 16:52N 37°24' W 000°55'1 2.8
2017-Nov-14 16:29N 37°25' W 000°55'1 2.6
2017-Nov-14 16:00N 37°27' W 000°55'1 2.5
2017-Nov-14 15:30N 37°28' W 000°54'1 2.1
2017-Nov-14 15:00N 37°29' W 000°54'1 1.7
2017-Nov-14 14:30N 37°30' W 000°55'1 2.5
2017-Nov-14 14:00N 37°31' W 000°56'5 0.1
2017-Nov-12 20:53N 37°35' W 000°59'2 4.2
2017-Nov-12 20:30N 37°34' W 000°60'2 3.1
2017-Nov-12 20:01N 37°32' W 001°01'9 5.3
2017-Nov-12 18:14N 37°24' W 001°07'1 2.3
2017-Nov-12 17:54N 37°24' W 001°06'1 2.2
2017-Nov-12 17:30N 37°24' W 001°05'1 1.9
2017-Nov-12 17:00N 37°24' W 001°04'80 4.7
2017-Nov-12 00:00N 36°30' W 002°18'57 4.7 280 / 71023.510.8 19.013.318.5
2017-Nov-11 12:00N 36°00' W 003°18'78 3.2 260 / 41025.210.8 19.510.018.5
2017-Nov-10 12:00N 36°00' W 004°54'16 6.4 050 / 111026.010.8 17.5 4.518.5
2017-Nov-10 09:33N 35°60' W 005°13'0 7.3
2017-Nov-10 09:31N 35°60' W 005°14'3 7.0
2017-Nov-10 09:01N 35°59' W 005°18'3 6.9
2017-Nov-10 08:30N 35°58' W 005°22'3 6.3
2017-Nov-10 08:01N 35°58' W 005°26'3 6.3
2017-Nov-10 07:30N 35°57' W 005°30'6 5.6
2017-Nov-10 06:25N 35°55' W 005°37'28 4.4
2017-Nov-10 00:00N 35°54' W 006°12'   040 / 111025.010.8 17.411.220.0

Dump ship's entire track history